sensor_id;sensor_type;location;lat;lon;timestamp;P1;durP1;ratioP1;P2;durP2;ratioP2
76701;SDS011;70097;44.536;0.146;2023-10-09T00:04:47;7.07;;;3.33;;
76701;SDS011;70097;44.536;0.146;2023-10-09T00:10:18;9.10;;;3.90;;
76701;SDS011;70097;44.536;0.146;2023-10-09T00:15:52;11.27;;;3.80;;
76701;SDS011;70097;44.536;0.146;2023-10-09T00:21:25;11.03;;;4.30;;
76701;SDS011;70097;44.536;0.146;2023-10-09T00:26:57;8.67;;;3.17;;
76701;SDS011;70097;44.536;0.146;2023-10-09T00:32:29;6.77;;;2.73;;
76701;SDS011;70097;44.536;0.146;2023-10-09T00:38:02;9.03;;;3.40;;
76701;SDS011;70097;44.536;0.146;2023-10-09T00:43:36;6.30;;;3.03;;
76701;SDS011;70097;44.536;0.146;2023-10-09T00:49:09;10.40;;;3.13;;
76701;SDS011;70097;44.536;0.146;2023-10-09T00:54:42;8.47;;;3.03;;
76701;SDS011;70097;44.536;0.146;2023-10-09T01:00:15;6.60;;;3.07;;
76701;SDS011;70097;44.536;0.146;2023-10-09T01:05:50;6.33;;;2.77;;
76701;SDS011;70097;44.536;0.146;2023-10-09T01:11:21;6.63;;;2.73;;
76701;SDS011;70097;44.536;0.146;2023-10-09T01:16:55;6.30;;;2.67;;
76701;SDS011;70097;44.536;0.146;2023-10-09T01:22:29;11.13;;;3.13;;
76701;SDS011;70097;44.536;0.146;2023-10-09T01:28:02;11.17;;;3.27;;
76701;SDS011;70097;44.536;0.146;2023-10-09T01:33:35;7.47;;;3.30;;
76701;SDS011;70097;44.536;0.146;2023-10-09T01:39:08;6.83;;;3.10;;
76701;SDS011;70097;44.536;0.146;2023-10-09T01:44:42;7.03;;;3.40;;
76701;SDS011;70097;44.536;0.146;2023-10-09T01:50:14;6.10;;;3.00;;
76701;SDS011;70097;44.536;0.146;2023-10-09T01:55:48;10.03;;;4.03;;
76701;SDS011;70097;44.536;0.146;2023-10-09T02:01:20;9.00;;;2.87;;
76701;SDS011;70097;44.536;0.146;2023-10-09T02:06:53;6.83;;;3.20;;
76701;SDS011;70097;44.536;0.146;2023-10-09T02:12:26;9.47;;;3.47;;
76701;SDS011;70097;44.536;0.146;2023-10-09T02:18:00;7.60;;;2.87;;
76701;SDS011;70097;44.536;0.146;2023-10-09T02:23:33;10.50;;;3.53;;
76701;SDS011;70097;44.536;0.146;2023-10-09T02:29:06;9.13;;;3.77;;
76701;SDS011;70097;44.536;0.146;2023-10-09T02:34:38;8.03;;;3.67;;
76701;SDS011;70097;44.536;0.146;2023-10-09T02:40:10;6.10;;;2.97;;
76701;SDS011;70097;44.536;0.146;2023-10-09T02:45:43;8.57;;;2.87;;
76701;SDS011;70097;44.536;0.146;2023-10-09T02:51:15;13.00;;;3.40;;
76701;SDS011;70097;44.536;0.146;2023-10-09T02:56:49;6.20;;;2.77;;
76701;SDS011;70097;44.536;0.146;2023-10-09T03:02:21;8.00;;;3.07;;
76701;SDS011;70097;44.536;0.146;2023-10-09T03:07:54;6.47;;;2.90;;
76701;SDS011;70097;44.536;0.146;2023-10-09T03:13:27;7.27;;;2.70;;
76701;SDS011;70097;44.536;0.146;2023-10-09T03:18:59;5.30;;;2.20;;
76701;SDS011;70097;44.536;0.146;2023-10-09T03:24:31;8.63;;;2.90;;
76701;SDS011;70097;44.536;0.146;2023-10-09T03:30:05;8.97;;;3.20;;
76701;SDS011;70097;44.536;0.146;2023-10-09T03:35:37;7.17;;;2.43;;
76701;SDS011;70097;44.536;0.146;2023-10-09T03:41:10;7.77;;;2.60;;
76701;SDS011;70097;44.536;0.146;2023-10-09T03:46:42;12.87;;;3.23;;
76701;SDS011;70097;44.536;0.146;2023-10-09T03:52:15;8.37;;;3.23;;
76701;SDS011;70097;44.536;0.146;2023-10-09T03:57:48;8.13;;;3.43;;
76701;SDS011;70097;44.536;0.146;2023-10-09T04:03:22;7.83;;;3.40;;
76701;SDS011;70097;44.536;0.146;2023-10-09T04:08:54;8.10;;;2.77;;
76701;SDS011;70097;44.536;0.146;2023-10-09T04:14:27;5.43;;;2.60;;
76701;SDS011;70097;44.536;0.146;2023-10-09T04:19:59;8.77;;;3.77;;
76701;SDS011;70097;44.536;0.146;2023-10-09T04:25:32;10.10;;;3.73;;
76701;SDS011;70097;44.536;0.146;2023-10-09T04:31:04;13.63;;;3.80;;
76701;SDS011;70097;44.536;0.146;2023-10-09T04:36:37;8.30;;;3.10;;
76701;SDS011;70097;44.536;0.146;2023-10-09T04:42:10;8.53;;;2.97;;
76701;SDS011;70097;44.536;0.146;2023-10-09T04:47:43;11.13;;;3.43;;
76701;SDS011;70097;44.536;0.146;2023-10-09T04:53:15;8.77;;;2.93;;
76701;SDS011;70097;44.536;0.146;2023-10-09T04:58:49;7.87;;;2.90;;
76701;SDS011;70097;44.536;0.146;2023-10-09T05:04:22;5.77;;;2.73;;
76701;SDS011;70097;44.536;0.146;2023-10-09T05:09:55;8.97;;;3.60;;
76701;SDS011;70097;44.536;0.146;2023-10-09T05:15:27;9.07;;;3.27;;
76701;SDS011;70097;44.536;0.146;2023-10-09T05:21:00;10.17;;;3.50;;
76701;SDS011;70097;44.536;0.146;2023-10-09T05:26:33;12.33;;;3.70;;
76701;SDS011;70097;44.536;0.146;2023-10-09T05:32:07;8.70;;;3.37;;
76701;SDS011;70097;44.536;0.146;2023-10-09T05:37:39;7.90;;;3.23;;
76701;SDS011;70097;44.536;0.146;2023-10-09T05:43:11;11.40;;;2.90;;
76701;SDS011;70097;44.536;0.146;2023-10-09T05:48:45;7.80;;;3.50;;
76701;SDS011;70097;44.536;0.146;2023-10-09T05:54:17;9.13;;;2.83;;
76701;SDS011;70097;44.536;0.146;2023-10-09T05:59:50;9.40;;;3.53;;
76701;SDS011;70097;44.536;0.146;2023-10-09T06:05:23;11.47;;;3.20;;
76701;SDS011;70097;44.536;0.146;2023-10-09T06:10:55;19.87;;;3.70;;
76701;SDS011;70097;44.536;0.146;2023-10-09T06:16:28;7.27;;;3.07;;
76701;SDS011;70097;44.536;0.146;2023-10-09T06:22:01;10.20;;;3.30;;
76701;SDS011;70097;44.536;0.146;2023-10-09T06:27:34;9.63;;;3.50;;
76701;SDS011;70097;44.536;0.146;2023-10-09T06:33:07;11.87;;;3.30;;
76701;SDS011;70097;44.536;0.146;2023-10-09T06:38:40;10.30;;;3.70;;
76701;SDS011;70097;44.536;0.146;2023-10-09T06:44:13;7.83;;;2.60;;
76701;SDS011;70097;44.536;0.146;2023-10-09T06:49:47;7.47;;;3.20;;
76701;SDS011;70097;44.536;0.146;2023-10-09T06:55:19;10.43;;;4.27;;
76701;SDS011;70097;44.536;0.146;2023-10-09T07:00:53;9.10;;;3.20;;
76701;SDS011;70097;44.536;0.146;2023-10-09T07:06:27;12.60;;;3.93;;
76701;SDS011;70097;44.536;0.146;2023-10-09T07:11:59;7.80;;;3.53;;
76701;SDS011;70097;44.536;0.146;2023-10-09T07:17:32;9.00;;;4.20;;
76701;SDS011;70097;44.536;0.146;2023-10-09T07:23:05;8.60;;;3.30;;
76701;SDS011;70097;44.536;0.146;2023-10-09T07:28:38;13.90;;;4.73;;
76701;SDS011;70097;44.536;0.146;2023-10-09T07:34:11;11.30;;;3.40;;
76701;SDS011;70097;44.536;0.146;2023-10-09T07:39:44;10.80;;;3.17;;
76701;SDS011;70097;44.536;0.146;2023-10-09T07:45:17;9.43;;;3.83;;
76701;SDS011;70097;44.536;0.146;2023-10-09T07:50:50;11.77;;;4.40;;
76701;SDS011;70097;44.536;0.146;2023-10-09T07:56:23;17.93;;;6.23;;
76701;SDS011;70097;44.536;0.146;2023-10-09T08:01:57;10.90;;;3.73;;
76701;SDS011;70097;44.536;0.146;2023-10-09T08:07:30;8.73;;;4.40;;
76701;SDS011;70097;44.536;0.146;2023-10-09T08:13:04;14.37;;;6.07;;
76701;SDS011;70097;44.536;0.146;2023-10-09T08:18:37;18.03;;;7.40;;
76701;SDS011;70097;44.536;0.146;2023-10-09T08:24:10;16.63;;;8.97;;
76701;SDS011;70097;44.536;0.146;2023-10-09T08:29:44;18.37;;;7.70;;
76701;SDS011;70097;44.536;0.146;2023-10-09T08:35:17;21.57;;;9.17;;
76701;SDS011;70097;44.536;0.146;2023-10-09T08:40:51;24.47;;;9.27;;
76701;SDS011;70097;44.536;0.146;2023-10-09T08:46:24;15.77;;;9.83;;
76701;SDS011;70097;44.536;0.146;2023-10-09T08:51:56;25.63;;;12.17;;
76701;SDS011;70097;44.536;0.146;2023-10-09T08:57:30;21.53;;;11.30;;
76701;SDS011;70097;44.536;0.146;2023-10-09T09:03:02;27.93;;;11.13;;
76701;SDS011;70097;44.536;0.146;2023-10-09T09:08:34;17.50;;;9.10;;
76701;SDS011;70097;44.536;0.146;2023-10-09T09:14:08;15.50;;;8.40;;
76701;SDS011;70097;44.536;0.146;2023-10-09T09:19:40;11.67;;;6.60;;
76701;SDS011;70097;44.536;0.146;2023-10-09T09:25:12;23.80;;;7.67;;
76701;SDS011;70097;44.536;0.146;2023-10-09T09:30:47;9.93;;;5.73;;
76701;SDS011;70097;44.536;0.146;2023-10-09T09:36:20;16.17;;;6.50;;
76701;SDS011;70097;44.536;0.146;2023-10-09T09:41:53;15.70;;;7.13;;
76701;SDS011;70097;44.536;0.146;2023-10-09T09:47:25;12.70;;;5.00;;
76701;SDS011;70097;44.536;0.146;2023-10-09T09:52:58;9.00;;;5.13;;
76701;SDS011;70097;44.536;0.146;2023-10-09T09:58:31;12.53;;;5.20;;
76701;SDS011;70097;44.536;0.146;2023-10-09T10:04:05;7.73;;;4.20;;
76701;SDS011;70097;44.536;0.146;2023-10-09T10:09:38;8.63;;;4.17;;
76701;SDS011;70097;44.536;0.146;2023-10-09T10:42:57;10.57;;;4.10;;
76701;SDS011;70097;44.536;0.146;2023-10-09T10:48:33;6.43;;;3.20;;
76701;SDS011;70097;44.536;0.146;2023-10-09T10:54:04;9.03;;;4.10;;
76701;SDS011;70097;44.536;0.146;2023-10-09T10:59:39;7.73;;;3.67;;
76701;SDS011;70097;44.536;0.146;2023-10-09T11:05:09;7.20;;;3.87;;
76701;SDS011;70097;44.536;0.146;2023-10-09T11:10:43;11.07;;;3.50;;
76701;SDS011;70097;44.536;0.146;2023-10-09T11:16:15;8.37;;;3.90;;
76701;SDS011;70097;44.536;0.146;2023-10-09T11:21:50;9.07;;;3.67;;
76701;SDS011;70097;44.536;0.146;2023-10-09T11:27:21;7.27;;;3.60;;
76701;SDS011;70097;44.536;0.146;2023-10-09T11:38:35;10.27;;;3.80;;
76701;SDS011;70097;44.536;0.146;2023-10-09T11:44:00;10.13;;;4.20;;
76701;SDS011;70097;44.536;0.146;2023-10-09T11:49:32;11.07;;;4.63;;
76701;SDS011;70097;44.536;0.146;2023-10-09T11:55:05;10.73;;;3.73;;
76701;SDS011;70097;44.536;0.146;2023-10-09T12:00:37;39.53;;;5.50;;
76701;SDS011;70097;44.536;0.146;2023-10-09T12:06:10;9.27;;;3.77;;
76701;SDS011;70097;44.536;0.146;2023-10-09T12:11:43;7.07;;;3.77;;
76701;SDS011;70097;44.536;0.146;2023-10-09T12:17:17;6.63;;;3.47;;
76701;SDS011;70097;44.536;0.146;2023-10-09T12:22:48;9.03;;;3.63;;
76701;SDS011;70097;44.536;0.146;2023-10-09T12:33:53;8.03;;;3.67;;
76701;SDS011;70097;44.536;0.146;2023-10-09T12:39:26;9.63;;;4.07;;
76701;SDS011;70097;44.536;0.146;2023-10-09T12:44:58;8.60;;;5.90;;
76701;SDS011;70097;44.536;0.146;2023-10-09T12:50:33;8.33;;;3.80;;
76701;SDS011;70097;44.536;0.146;2023-10-09T12:56:04;10.87;;;3.47;;
76701;SDS011;70097;44.536;0.146;2023-10-09T13:01:37;5.27;;;3.20;;
76701;SDS011;70097;44.536;0.146;2023-10-09T13:07:10;8.27;;;3.20;;
76701;SDS011;70097;44.536;0.146;2023-10-09T13:12:44;6.00;;;2.90;;
76701;SDS011;70097;44.536;0.146;2023-10-09T13:18:18;8.27;;;4.53;;
76701;SDS011;70097;44.536;0.146;2023-10-09T13:23:50;6.67;;;3.57;;
76701;SDS011;70097;44.536;0.146;2023-10-09T13:29:22;4.80;;;2.80;;
76701;SDS011;70097;44.536;0.146;2023-10-09T13:34:55;8.33;;;2.73;;
76701;SDS011;70097;44.536;0.146;2023-10-09T13:40:29;5.77;;;2.50;;
76701;SDS011;70097;44.536;0.146;2023-10-09T13:46:01;8.13;;;3.30;;
76701;SDS011;70097;44.536;0.146;2023-10-09T13:51:34;5.43;;;2.67;;
76701;SDS011;70097;44.536;0.146;2023-10-09T13:57:07;7.63;;;2.60;;
76701;SDS011;70097;44.536;0.146;2023-10-09T14:02:41;3.13;;;2.00;;
76701;SDS011;70097;44.536;0.146;2023-10-09T14:08:14;4.93;;;2.63;;
76701;SDS011;70097;44.536;0.146;2023-10-09T14:13:46;8.93;;;2.40;;
76701;SDS011;70097;44.536;0.146;2023-10-09T14:19:19;7.93;;;2.77;;
76701;SDS011;70097;44.536;0.146;2023-10-09T14:24:52;17.40;;;2.30;;
76701;SDS011;70097;44.536;0.146;2023-10-09T14:30:24;9.97;;;2.43;;
76701;SDS011;70097;44.536;0.146;2023-10-09T14:35:57;4.50;;;2.07;;
76701;SDS011;70097;44.536;0.146;2023-10-09T14:41:29;5.70;;;2.00;;
76701;SDS011;70097;44.536;0.146;2023-10-09T14:47:01;9.47;;;2.40;;
76701;SDS011;70097;44.536;0.146;2023-10-09T14:52:34;6.00;;;1.83;;
76701;SDS011;70097;44.536;0.146;2023-10-09T14:58:07;6.37;;;2.57;;
76701;SDS011;70097;44.536;0.146;2023-10-09T15:03:40;7.47;;;2.60;;
76701;SDS011;70097;44.536;0.146;2023-10-09T15:09:13;9.57;;;2.10;;
76701;SDS011;70097;44.536;0.146;2023-10-09T15:14:44;8.73;;;2.83;;
76701;SDS011;70097;44.536;0.146;2023-10-09T15:20:17;7.07;;;2.60;;
76701;SDS011;70097;44.536;0.146;2023-10-09T15:25:50;5.03;;;2.70;;
76701;SDS011;70097;44.536;0.146;2023-10-09T15:31:22;11.00;;;2.60;;
76701;SDS011;70097;44.536;0.146;2023-10-09T15:36:55;12.83;;;2.53;;
76701;SDS011;70097;44.536;0.146;2023-10-09T15:42:28;11.00;;;2.47;;
76701;SDS011;70097;44.536;0.146;2023-10-09T15:48:02;7.10;;;2.33;;
76701;SDS011;70097;44.536;0.146;2023-10-09T15:53:33;9.33;;;2.20;;
76701;SDS011;70097;44.536;0.146;2023-10-09T15:59:05;5.33;;;2.20;;
76701;SDS011;70097;44.536;0.146;2023-10-09T16:04:37;8.50;;;3.00;;
76701;SDS011;70097;44.536;0.146;2023-10-09T16:10:10;6.40;;;2.83;;
76701;SDS011;70097;44.536;0.146;2023-10-09T16:15:43;4.73;;;2.30;;
76701;SDS011;70097;44.536;0.146;2023-10-09T16:21:16;5.37;;;2.60;;
76701;SDS011;70097;44.536;0.146;2023-10-09T16:26:48;10.23;;;2.47;;
76701;SDS011;70097;44.536;0.146;2023-10-09T16:32:20;9.87;;;3.63;;
76701;SDS011;70097;44.536;0.146;2023-10-09T16:37:53;9.67;;;3.20;;
76701;SDS011;70097;44.536;0.146;2023-10-09T16:43:27;7.70;;;2.60;;
76701;SDS011;70097;44.536;0.146;2023-10-09T16:49:00;10.27;;;2.90;;
76701;SDS011;70097;44.536;0.146;2023-10-09T16:54:32;8.77;;;2.90;;
76701;SDS011;70097;44.536;0.146;2023-10-09T17:00:04;10.13;;;3.13;;
76701;SDS011;70097;44.536;0.146;2023-10-09T17:05:37;7.97;;;2.90;;
76701;SDS011;70097;44.536;0.146;2023-10-09T17:11:10;7.30;;;3.17;;
76701;SDS011;70097;44.536;0.146;2023-10-09T17:16:43;5.30;;;2.13;;
76701;SDS011;70097;44.536;0.146;2023-10-09T17:22:15;8.40;;;2.90;;
76701;SDS011;70097;44.536;0.146;2023-10-09T17:27:47;10.63;;;2.80;;
76701;SDS011;70097;44.536;0.146;2023-10-09T17:33:21;6.40;;;3.07;;
76701;SDS011;70097;44.536;0.146;2023-10-09T17:38:53;9.70;;;2.60;;
76701;SDS011;70097;44.536;0.146;2023-10-09T17:44:26;5.93;;;2.63;;
76701;SDS011;70097;44.536;0.146;2023-10-09T17:49:59;6.53;;;2.33;;
76701;SDS011;70097;44.536;0.146;2023-10-09T17:55:31;8.33;;;2.73;;
76701;SDS011;70097;44.536;0.146;2023-10-09T18:01:04;10.67;;;3.20;;
76701;SDS011;70097;44.536;0.146;2023-10-09T18:06:37;12.33;;;2.63;;
76701;SDS011;70097;44.536;0.146;2023-10-09T18:12:09;7.87;;;3.03;;
76701;SDS011;70097;44.536;0.146;2023-10-09T18:17:42;8.37;;;3.00;;
76701;SDS011;70097;44.536;0.146;2023-10-09T18:23:15;5.80;;;2.97;;
76701;SDS011;70097;44.536;0.146;2023-10-09T18:28:47;8.73;;;2.93;;
76701;SDS011;70097;44.536;0.146;2023-10-09T18:34:19;6.17;;;2.83;;
76701;SDS011;70097;44.536;0.146;2023-10-09T18:39:52;7.67;;;2.83;;
76701;SDS011;70097;44.536;0.146;2023-10-09T18:45:25;8.63;;;2.80;;
76701;SDS011;70097;44.536;0.146;2023-10-09T18:50:58;7.30;;;2.90;;
76701;SDS011;70097;44.536;0.146;2023-10-09T18:56:31;7.20;;;3.20;;
76701;SDS011;70097;44.536;0.146;2023-10-09T19:02:04;10.07;;;3.63;;
76701;SDS011;70097;44.536;0.146;2023-10-09T19:07:36;11.90;;;3.13;;
76701;SDS011;70097;44.536;0.146;2023-10-09T19:13:10;9.30;;;2.60;;
76701;SDS011;70097;44.536;0.146;2023-10-09T19:18:42;9.13;;;2.90;;
76701;SDS011;70097;44.536;0.146;2023-10-09T19:24:14;10.70;;;2.63;;
76701;SDS011;70097;44.536;0.146;2023-10-09T19:29:47;7.80;;;2.70;;
76701;SDS011;70097;44.536;0.146;2023-10-09T19:35:20;9.20;;;3.03;;
76701;SDS011;70097;44.536;0.146;2023-10-09T19:40:52;9.90;;;3.07;;
76701;SDS011;70097;44.536;0.146;2023-10-09T19:46:26;5.90;;;2.40;;
76701;SDS011;70097;44.536;0.146;2023-10-09T19:51:58;7.03;;;2.50;;
76701;SDS011;70097;44.536;0.146;2023-10-09T19:57:31;8.17;;;2.63;;
76701;SDS011;70097;44.536;0.146;2023-10-09T20:03:04;5.53;;;2.23;;
76701;SDS011;70097;44.536;0.146;2023-10-09T20:08:38;6.23;;;3.33;;
76701;SDS011;70097;44.536;0.146;2023-10-09T20:14:10;8.17;;;2.73;;
76701;SDS011;70097;44.536;0.146;2023-10-09T20:19:44;9.77;;;3.93;;
76701;SDS011;70097;44.536;0.146;2023-10-09T20:25:17;11.73;;;4.20;;
76701;SDS011;70097;44.536;0.146;2023-10-09T20:30:51;8.67;;;3.70;;
76701;SDS011;70097;44.536;0.146;2023-10-09T20:36:22;13.87;;;3.80;;
76701;SDS011;70097;44.536;0.146;2023-10-09T20:41:55;9.83;;;3.60;;
76701;SDS011;70097;44.536;0.146;2023-10-09T20:47:27;7.10;;;3.47;;
76701;SDS011;70097;44.536;0.146;2023-10-09T20:52:59;9.03;;;3.63;;
76701;SDS011;70097;44.536;0.146;2023-10-09T20:58:32;8.93;;;4.30;;
76701;SDS011;70097;44.536;0.146;2023-10-09T21:04:05;9.67;;;3.60;;
76701;SDS011;70097;44.536;0.146;2023-10-09T21:09:38;7.03;;;3.97;;
76701;SDS011;70097;44.536;0.146;2023-10-09T21:15:11;9.50;;;4.40;;
76701;SDS011;70097;44.536;0.146;2023-10-09T21:20:43;10.87;;;4.20;;
76701;SDS011;70097;44.536;0.146;2023-10-09T21:26:17;9.40;;;4.07;;
76701;SDS011;70097;44.536;0.146;2023-10-09T21:31:49;9.47;;;4.03;;
76701;SDS011;70097;44.536;0.146;2023-10-09T21:37:23;11.30;;;4.43;;
76701;SDS011;70097;44.536;0.146;2023-10-09T21:42:55;10.97;;;4.90;;
76701;SDS011;70097;44.536;0.146;2023-10-09T21:48:27;8.80;;;4.10;;
76701;SDS011;70097;44.536;0.146;2023-10-09T21:53:59;12.67;;;4.93;;
76701;SDS011;70097;44.536;0.146;2023-10-09T21:59:32;12.47;;;4.20;;
76701;SDS011;70097;44.536;0.146;2023-10-09T22:05:05;10.27;;;4.47;;
76701;SDS011;70097;44.536;0.146;2023-10-09T22:10:37;11.77;;;4.67;;
76701;SDS011;70097;44.536;0.146;2023-10-09T22:16:09;8.97;;;4.50;;
76701;SDS011;70097;44.536;0.146;2023-10-09T22:27:14;10.47;;;5.03;;
76701;SDS011;70097;44.536;0.146;2023-10-09T22:32:46;10.17;;;4.23;;
76701;SDS011;70097;44.536;0.146;2023-10-09T22:38:19;11.40;;;4.60;;
76701;SDS011;70097;44.536;0.146;2023-10-09T22:43:51;11.90;;;4.47;;
76701;SDS011;70097;44.536;0.146;2023-10-09T22:49:24;10.60;;;4.53;;
76701;SDS011;70097;44.536;0.146;2023-10-09T22:54:57;14.43;;;4.70;;
76701;SDS011;70097;44.536;0.146;2023-10-09T23:00:29;13.60;;;4.77;;
76701;SDS011;70097;44.536;0.146;2023-10-09T23:06:02;7.57;;;4.00;;
76701;SDS011;70097;44.536;0.146;2023-10-09T23:11:34;7.13;;;3.40;;
76701;SDS011;70097;44.536;0.146;2023-10-09T23:17:06;10.00;;;4.30;;
76701;SDS011;70097;44.536;0.146;2023-10-09T23:22:39;8.23;;;4.23;;
76701;SDS011;70097;44.536;0.146;2023-10-09T23:28:12;13.40;;;3.90;;
76701;SDS011;70097;44.536;0.146;2023-10-09T23:33:44;10.13;;;3.97;;
76701;SDS011;70097;44.536;0.146;2023-10-09T23:39:17;8.30;;;3.73;;
76701;SDS011;70097;44.536;0.146;2023-10-09T23:44:50;10.60;;;4.07;;
76701;SDS011;70097;44.536;0.146;2023-10-09T23:50:22;11.03;;;4.03;;
76701;SDS011;70097;44.536;0.146;2023-10-09T23:55:56;7.67;;;4.17;;
